Fairfield, South Carolina
Current Conditions -  °F | °C
As of 8:50 AM on Monday 22 Dec 2014 (Local Time) from KHXD Reporting Station
Haze Haze  
Wind Chill: 45°   Ceiling: 200
Heat Index: 48°   Visibility: 1mi
Dew Point: 48°   Wind: 8mph
Humidity: 100%   Direction: 20°NNE
Pressure: 30.06"   Gusts: NA
Location:  32.1625°N, 80.7541°W
Report Text: KHXD 221350Z 02007KT 1SM BR OVC002 09/09 A3006
Loading
Personal Weather Stations






























Interactive Weather Map New forecast layout! Learn more

10-Day Weather Forecast

Advertisements
Track Severe Weather on mobile